»·PEaware :: N1128 KPDX-KSEA

N1128 :: KPDX-KSEA

FLIGHT INFORMATION

Flight Status: Arrived
Operator: Privately registered:
United States
More flights under this callsign
Pilot: Siddique N. (20419)
Aircraft: ECLIPSE 500
(EA50)
More flights by this aircraft type
Origin: KPDX Portland Intl
United States
Destination: KSEA Seattle-Tacoma Intl
United States
More flights between these airports :: More routes between these airports
Route: COUGA KRIEG HAWKZ7
File this flight plan on PilotEdge
Remarks:
Altitude:
(Current/Filed)
16,000ft
Speed:
(Current/Filed)
250kts
Departed: 19-Oct-20 09:51 AM
Arrived: 19-Oct-20 10:28 AM
Distance/Time
Traveled:
112nm/0:37
Distance/Time
To Go:
Arrived

Flight Plot

Page will automatically refresh every two minutes.

Flight plan parsing failed; only flown route is shown


Map Options




Map Legend


Flown Route
Filed Route
Departure Airport
Arrival Airport
Navaid (VOR, NDB)
Fix

Horizontal Profiles

Position Reports

Time Latitude Longitude Heading Altitude Ground
Speed
19-Oct-20 09:02 45.587624 -122.584003 210 19ft 0kts
19-Oct-20 09:03 45.587624 -122.584003 210 19ft 0kts
19-Oct-20 09:04 45.587624 -122.584003 210 19ft 0kts
19-Oct-20 09:05 45.587624 -122.584003 210 19ft 0kts
19-Oct-20 09:06 45.587624 -122.584003 210 19ft 0kts
19-Oct-20 09:07 45.587624 -122.584003 210 19ft 0kts
19-Oct-20 09:08 45.587624 -122.584003 210 19ft 0kts
19-Oct-20 09:09 45.587624 -122.584003 210 19ft 0kts
19-Oct-20 09:10 45.587624 -122.584003 210 19ft 0kts
19-Oct-20 09:11 45.587624 -122.584003 210 19ft 0kts
19-Oct-20 09:12 45.587624 -122.584003 210 19ft 0kts
19-Oct-20 09:13 45.587624 -122.584003 210 19ft 0kts
19-Oct-20 09:14 45.587624 -122.584003 210 19ft 0kts
19-Oct-20 09:15 45.587624 -122.584003 210 19ft 0kts
19-Oct-20 09:16 45.587624 -122.584003 210 19ft 0kts
19-Oct-20 09:17 45.587624 -122.584003 210 19ft 0kts
19-Oct-20 09:18 45.587624 -122.584003 210 19ft 0kts
19-Oct-20 09:19 45.587624 -122.584003 210 19ft 0kts
19-Oct-20 09:20 45.587624 -122.584003 210 19ft 0kts
19-Oct-20 09:21 45.587624 -122.584003 210 19ft 0kts
19-Oct-20 09:22 45.587624 -122.584003 210 19ft 0kts
19-Oct-20 09:23 45.587624 -122.584003 210 19ft 0kts
19-Oct-20 09:24 45.587624 -122.584003 210 19ft 0kts
19-Oct-20 09:25 45.587624 -122.584003 210 19ft 0kts
19-Oct-20 09:26 45.587624 -122.584003 210 19ft 0kts
19-Oct-20 09:27 45.587624 -122.584003 210 19ft 0kts
19-Oct-20 09:28 45.587624 -122.584003 210 19ft 0kts
19-Oct-20 09:29 45.587624 -122.584003 210 19ft 0kts
19-Oct-20 09:30 45.587624 -122.584003 210 19ft 0kts
19-Oct-20 09:31 45.587624 -122.584003 210 19ft 0kts
19-Oct-20 09:33 45.587624 -122.584003 210 19ft 0kts
19-Oct-20 09:34 45.587624 -122.584003 210 19ft 0kts
19-Oct-20 09:35 45.587624 -122.584003 210 19ft 0kts
19-Oct-20 09:36 45.587624 -122.584003 210 19ft 0kts
19-Oct-20 09:37 45.587624 -122.584003 210 19ft 0kts
19-Oct-20 09:38 45.587624 -122.584003 210 19ft 0kts
19-Oct-20 09:39 45.587624 -122.584003 210 19ft 0kts
19-Oct-20 09:40 45.587624 -122.584003 210 19ft 0kts
19-Oct-20 09:41 45.587624 -122.584003 210 19ft 0kts
19-Oct-20 09:42 45.587624 -122.584003 210 19ft 0kts
19-Oct-20 09:43 45.587624 -122.584003 210 19ft 0kts
19-Oct-20 09:44 45.587624 -122.584003 210 19ft 0kts
19-Oct-20 09:45 45.587624 -122.584003 210 19ft 0kts
19-Oct-20 09:46 45.587658 -122.583846 50 19ft 4kts
19-Oct-20 09:47 45.589931 -122.586357 298 19ft 18kts
19-Oct-20 09:48 45.593145 -122.594624 297 22ft 22kts
19-Oct-20 09:49 45.594523 -122.597495 356 23ft 0kts
19-Oct-20 09:50 45.594991 -122.596153 119 23ft 25kts
19-Oct-20 09:51 45.582450 -122.549473 99 861ft 183kts
19-Oct-20 09:51 45.574092 -122.487975 99 3359ft 199kts
19-Oct-20 09:53 45.575298 -122.399642 24 6591ft 203kts
19-Oct-20 09:53 45.618173 -122.412767 334 8695ft 201kts
19-Oct-20 09:55 45.687843 -122.442836 335 11588ft 218kts
19-Oct-20 09:55 45.735833 -122.463797 333 13936ft 219kts
19-Oct-20 09:56 45.795543 -122.491300 333 15859ft 251kts
19-Oct-20 09:57 45.869663 -122.533507 328 15743ft 306kts
19-Oct-20 09:58 45.947075 -122.585581 328 15740ft 305kts
19-Oct-20 09:59 46.025381 -122.631333 334 15740ft 305kts
19-Oct-20 10:00 46.103010 -122.677468 335 15733ft 304kts
19-Oct-20 10:01 46.189514 -122.686682 348 15739ft 308kts
19-Oct-20 10:02 46.274014 -122.700938 343 15737ft 304kts
19-Oct-20 10:03 46.352029 -122.719169 354 14363ft 269kts
19-Oct-20 10:04 46.426936 -122.714818 353 12463ft 272kts
19-Oct-20 10:05 46.503163 -122.715126 353 11740ft 272kts
19-Oct-20 10:06 46.584224 -122.722309 349 11741ft 315kts
19-Oct-20 10:07 46.671669 -122.732695 350 11739ft 316kts
19-Oct-20 10:08 46.759159 -122.732520 355 11739ft 310kts
19-Oct-20 10:09 46.834279 -122.678450 37 11684ft 306kts
19-Oct-20 10:10 46.900417 -122.597962 34 11686ft 316kts
19-Oct-20 10:11 46.976574 -122.537776 13 11454ft 304kts
19-Oct-20 10:12 47.052907 -122.502782 5 9889ft 277kts
19-Oct-20 10:13 47.124424 -122.484022 2 9689ft 255kts
19-Oct-20 10:14 47.199504 -122.474354 357 9680ft 281kts
19-Oct-20 10:15 47.274591 -122.460352 1 7798ft 248kts
19-Oct-20 10:16 47.342085 -122.451513 358 7763ft 260kts
19-Oct-20 10:17 47.411387 -122.449186 356 6760ft 214kts
19-Oct-20 10:18 47.472405 -122.447957 355 5780ft 223kts
19-Oct-20 10:19 47.528639 -122.451527 358 5761ft 195kts
19-Oct-20 10:20 47.585569 -122.440563 4 4492ft 215kts
19-Oct-20 10:21 47.640139 -122.423652 40 3749ft 188kts
19-Oct-20 10:22 47.643478 -122.343933 104 2752ft 184kts
19-Oct-20 10:23 47.604221 -122.313457 182 2758ft 174kts
19-Oct-20 10:24 47.552907 -122.314121 184 2175ft 181kts
19-Oct-20 10:25 47.506971 -122.316999 183 1084ft 156kts
19-Oct-20 10:26 47.460687 -122.317965 182 370ft 148kts
19-Oct-20 10:27 47.442776 -122.317244 150 347ft 1kts
19-Oct-20 10:28 47.442431 -122.316960 151 349ft 9kts

Navigation Log

Ident Type
Flight plan parsing failed, navigation log unavailable